Time;durP1;ratioP1;P1;durP2;ratioP2;P2;SDS_P1;SDS_P2;PMS_P1;PMS_P2;Temp;Humidity;BMP_temperature;BMP_pressure;BME280_temperature;BME280_humidity;BME280_pressure;Samples;Min_cycle;Max_cycle;Signal;HPM_P1;HPM_P2
2021/05/26 00:00:49;;;;;;;0.60;0.50;;;;;;;10.56;88.71;100728.66;5052615;28;20430;-71
2021/05/26 00:03:15;;;;;;;0.53;0.47;;;;;;;10.53;88.57;100728.44;5052726;28;20445;-71
2021/05/26 00:05:41;;;;;;;0.50;0.40;;;;;;;10.47;89.01;100732.34;5056285;28;20450;-70
2021/05/26 00:08:07;;;;;;;2.03;0.70;;;;;;;10.47;88.98;100722.31;5054992;28;20454;-70
2021/05/26 00:10:33;;;;;;;0.50;0.40;;;;;;;10.46;88.25;100720.69;5056223;28;20496;-70
2021/05/26 00:13:00;;;;;;;0.60;0.50;;;;;;;10.42;87.50;100718.88;5056096;28;20819;-70
2021/05/26 00:15:26;;;;;;;0.40;0.30;;;;;;;10.38;88.36;100724.09;5055842;28;20441;-70
2021/05/26 00:17:52;;;;;;;0.60;0.43;;;;;;;10.38;88.44;100717.88;5055158;28;20496;-70
2021/05/26 00:20:19;;;;;;;0.50;0.40;;;;;;;10.38;88.98;100721.38;5056076;28;20835;-71
2021/05/26 00:22:45;;;;;;;0.57;0.40;;;;;;;10.38;88.53;100713.25;5056029;28;20453;-70
2021/05/26 00:25:13;;;;;;;1.37;0.40;;;;;;;10.37;87.89;100713.56;5056030;28;20443;-70
2021/05/26 00:27:39;;;;;;;0.50;0.33;;;;;;;10.35;87.85;100714.63;5055142;28;20499;-71
2021/05/26 00:30:07;;;;;;;0.40;0.30;;;;;;;10.32;87.89;100709.84;5055390;28;20931;-68
2021/05/26 00:32:33;;;;;;;0.60;0.47;;;;;;;10.30;87.77;100705.81;5055859;28;20507;-71
2021/05/26 00:34:59;;;;;;;0.47;0.47;;;;;;;10.27;88.12;100703.69;5055762;28;20482;-70
2021/05/26 00:37:25;;;;;;;0.60;0.40;;;;;;;10.27;88.92;100701.81;5054897;28;20492;-71
2021/05/26 00:39:52;;;;;;;0.50;0.50;;;;;;;10.28;87.92;100706.09;5055555;28;20868;-70
2021/05/26 00:42:19;;;;;;;0.50;0.40;;;;;;;10.29;88.05;100702.28;5055693;28;20450;-71
2021/05/26 00:44:45;;;;;;;0.50;0.40;;;;;;;10.27;88.87;100698.25;5055546;28;20439;-70
2021/05/26 00:47:12;;;;;;;0.60;0.40;;;;;;;10.31;89.46;100705.53;5054941;28;20443;-70
2021/05/26 00:49:38;;;;;;;0.70;0.50;;;;;;;10.33;87.99;100702.50;5054906;28;20994;-71
2021/05/26 00:52:04;;;;;;;1.17;0.80;;;;;;;10.34;87.81;100712.22;5055517;28;20434;-70
2021/05/26 00:54:30;;;;;;;0.40;0.30;;;;;;;10.32;87.96;100699.00;5055318;28;20494;-70
2021/05/26 00:56:56;;;;;;;0.50;0.50;;;;;;;10.32;89.21;100701.72;5054656;28;20935;-71
2021/05/26 00:59:22;;;;;;;0.67;0.40;;;;;;;10.33;88.26;100706.03;5054893;28;20458;-70
2021/05/26 01:01:48;;;;;;;0.40;0.30;;;;;;;10.32;88.61;100696.28;5055322;28;20449;-70
2021/05/26 01:04:15;;;;;;;0.50;0.30;;;;;;;10.34;88.38;100698.69;5055258;28;20434;-70
2021/05/26 01:06:41;;;;;;;0.53;0.40;;;;;;;10.35;89.03;100703.00;5054985;28;20449;-70
2021/05/26 01:09:07;;;;;;;0.60;0.40;;;;;;;10.36;87.83;100701.94;5054397;28;20467;-70
2021/05/26 01:11:32;;;;;;;0.40;0.33;;;;;;;10.38;87.88;100702.41;5055134;28;20435;-70
2021/05/26 01:13:59;;;;;;;0.40;0.30;;;;;;;10.36;87.80;100704.63;5054960;28;20846;-70
2021/05/26 01:16:25;;;;;;;0.50;0.30;;;;;;;10.40;87.78;100704.81;5054148;28;20940;-70
2021/05/26 01:18:51;;;;;;;0.70;0.40;;;;;;;10.41;87.86;100701.03;5053959;28;20458;-70
2021/05/26 01:21:17;;;;;;;0.50;0.50;;;;;;;10.39;88.30;100703.22;5055025;28;20791;-71
2021/05/26 01:23:45;;;;;;;0.50;0.40;;;;;;;10.38;89.16;100701.63;5054909;28;20466;-70
2021/05/26 01:26:11;;;;;;;0.50;0.30;;;;;;;10.41;88.32;100698.34;5054864;28;20485;-70
2021/05/26 01:28:38;;;;;;;0.67;0.50;;;;;;;10.39;87.46;100693.19;5053682;28;20474;-70
2021/05/26 01:31:04;;;;;;;0.40;0.30;;;;;;;10.38;88.06;100685.38;5054785;28;20438;-70
2021/05/26 01:33:31;;;;;;;0.40;0.30;;;;;;;10.38;88.69;100694.31;5055070;28;21002;-70
2021/05/26 01:35:57;;;;;;;0.73;0.40;;;;;;;10.39;89.52;100686.97;5055641;28;20450;-70
2021/05/26 01:38:24;;;;;;;0.63;0.50;;;;;;;10.41;88.36;100687.50;5053428;28;20838;-70
2021/05/26 01:40:55;;;;;;;0.50;0.40;;;;;;;10.41;88.34;100685.59;5054591;28;20438;-71
2021/05/26 01:43:23;;;;;;;0.60;0.60;;;;;;;10.39;88.80;100689.69;5054579;28;20429;-70
2021/05/26 01:45:49;;;;;;;0.50;0.30;;;;;;;10.41;88.45;100684.78;5053329;28;20876;-71
2021/05/26 01:48:15;;;;;;;1.00;0.60;;;;;;;10.40;88.01;100694.00;5054263;28;20466;-70
2021/05/26 01:50:41;;;;;;;1.13;0.60;;;;;;;10.41;88.83;100684.78;5054075;28;20989;-70
2021/05/26 01:53:08;;;;;;;1.37;0.73;;;;;;;10.42;88.35;100689.09;5053071;28;20453;-70
2021/05/26 01:55:36;;;;;;;0.67;0.53;;;;;;;10.37;88.73;100684.56;5053803;28;20943;-70
2021/05/26 01:58:04;;;;;;;0.57;0.40;;;;;;;10.37;88.53;100690.00;5054132;28;20434;-71
2021/05/26 02:00:30;;;;;;;0.90;0.70;;;;;;;10.34;89.50;100690.56;5053391;28;20496;-70
2021/05/26 02:02:56;;;;;;;0.60;0.57;;;;;;;10.34;89.03;100687.88;5053964;28;20450;-70
2021/05/26 02:05:22;;;;;;;0.70;0.40;;;;;;;10.35;90.07;100686.75;5054075;28;20442;-70
2021/05/26 02:07:48;;;;;;;0.60;0.40;;;;;;;10.37;89.17;100681.06;5052806;28;20795;-71
2021/05/26 02:10:16;;;;;;;0.50;0.30;;;;;;;10.35;88.88;100682.16;5053652;28;20830;-70
2021/05/26 02:12:42;;;;;;;0.60;0.53;;;;;;;10.33;90.67;100684.38;5053994;28;20446;-70
2021/05/26 02:15:12;;;;;;;1.30;0.57;;;;;;;10.39;90.34;100686.97;5053475;28;21018;-70
2021/05/26 02:17:39;;;;;;;1.27;1.07;;;;;;;10.40;89.75;100681.25;5053070;28;20484;-71
2021/05/26 02:20:09;;;;;;;0.50;0.40;;;;;;;10.34;91.88;100685.16;5053746;28;20458;-70
2021/05/26 02:22:35;;;;;;;1.03;0.40;;;;;;;10.37;91.20;100683.78;5054199;28;20496;-70
2021/05/26 02:25:02;;;;;;;0.40;0.30;;;;;;;10.35;90.85;100682.16;5053662;28;20441;-70
2021/05/26 02:27:28;;;;;;;0.77;0.50;;;;;;;10.39;90.45;100681.56;5052816;28;20496;-69
2021/05/26 02:29:54;;;;;;;0.50;0.40;;;;;;;10.34;90.21;100675.13;5053310;28;20524;-69
2021/05/26 02:32:22;;;;;;;0.73;0.40;;;;;;;10.35;90.81;100682.16;5052796;28;20442;-69
2021/05/26 02:34:48;;;;;;;1.47;0.70;;;;;;;10.33;90.13;100678.94;5053440;28;20493;-69
2021/05/26 02:37:14;;;;;;;2.73;0.83;;;;;;;10.28;89.68;100672.81;5052858;28;20454;-69
2021/05/26 02:39:40;;;;;;;0.50;0.50;;;;;;;10.30;89.76;100682.25;5053252;28;20462;-69
2021/05/26 02:42:06;;;;;;;1.07;0.50;;;;;;;10.28;90.69;100684.44;5053349;28;20442;-69
2021/05/26 02:44:32;;;;;;;0.60;0.50;;;;;;;10.24;90.83;100675.31;5053017;28;20481;-69
2021/05/26 02:46:58;;;;;;;0.50;0.30;;;;;;;10.21;91.05;100670.44;5052893;28;20438;-69
2021/05/26 02:49:25;;;;;;;0.70;0.63;;;;;;;10.22;90.52;100671.25;5052846;28;20461;-69
2021/05/26 02:51:51;;;;;;;0.97;0.40;;;;;;;10.22;90.95;100673.97;5053202;28;20446;-69
2021/05/26 02:54:17;;;;;;;0.50;0.40;;;;;;;10.20;91.12;100670.75;5053251;28;20532;-69
2021/05/26 02:56:43;;;;;;;1.20;0.50;;;;;;;10.21;91.84;100678.56;5052977;28;20825;-69
2021/05/26 02:59:09;;;;;;;0.50;0.40;;;;;;;10.19;92.48;100678.06;5052551;28;20938;-69
2021/05/26 03:01:35;;;;;;;1.00;0.80;;;;;;;10.21;92.30;100673.16;5053220;28;20446;-69
2021/05/26 03:04:01;;;;;;;0.90;0.60;;;;;;;10.26;92.38;100675.81;5053178;28;20802;-69
2021/05/26 03:06:29;;;;;;;0.93;0.60;;;;;;;10.31;92.51;100678.44;5052844;28;20439;-69
2021/05/26 03:08:55;;;;;;;0.77;0.50;;;;;;;10.31;92.18;100681.16;5052178;28;20457;-69
2021/05/26 03:11:20;;;;;;;1.33;0.80;;;;;;;10.39;92.12;100678.84;5052817;28;20442;-69
2021/05/26 03:13:47;;;;;;;0.60;0.50;;;;;;;10.45;91.11;100678.47;5052971;28;20588;-70
2021/05/26 03:16:13;;;;;;;0.50;0.40;;;;;;;10.50;90.90;100688.41;5052699;28;20572;-70
2021/05/26 03:18:40;;;;;;;0.97;0.50;;;;;;;10.53;90.56;100685.09;5052130;28;20459;-70
2021/05/26 03:21:06;;;;;;;0.70;0.53;;;;;;;10.57;89.67;100683.41;5052935;28;20447;-70
2021/05/26 03:23:33;;;;;;;0.70;0.50;;;;;;;10.60;89.87;100688.22;5053129;28;20445;-70
2021/05/26 03:25:59;;;;;;;0.60;0.50;;;;;;;10.61;90.08;100685.22;5052641;28;20965;-70
2021/05/26 03:28:25;;;;;;;0.50;0.50;;;;;;;10.65;89.82;100696.25;5054497;28;20470;-70
2021/05/26 03:30:51;;;;;;;0.70;0.50;;;;;;;10.66;89.39;100691.66;5052064;28;20529;-70
2021/05/26 03:33:17;;;;;;;1.53;0.63;;;;;;;10.65;89.05;100685.44;5052492;28;20442;-71
2021/05/26 03:35:44;;;;;;;4.60;0.50;;;;;;;10.69;89.10;100682.94;5051473;28;20970;-70
2021/05/26 03:38:11;;;;;;;0.53;0.47;;;;;;;10.64;89.15;100672.19;5052063;28;20469;-70
2021/05/26 03:40:38;;;;;;;0.50;0.50;;;;;;;10.65;88.51;100674.59;5056797;28;20442;-70
2021/05/26 03:43:05;;;;;;;0.73;0.53;;;;;;;10.60;88.70;100677.41;5056783;28;20490;-70
2021/05/26 03:45:32;;;;;;;1.10;0.40;;;;;;;10.56;89.05;100676.38;5056751;28;20450;-70
2021/05/26 03:47:58;;;;;;;0.70;0.70;;;;;;;10.56;88.75;100671.75;5055733;28;20450;-70
2021/05/26 03:50:24;;;;;;;0.50;0.33;;;;;;;10.58;89.16;100676.88;5056685;28;20453;-70
2021/05/26 03:52:51;;;;;;;1.27;0.90;;;;;;;10.64;89.84;100678.41;5056631;28;20471;-69
2021/05/26 03:55:19;;;;;;;0.50;0.40;;;;;;;10.69;89.25;100669.38;5056482;28;20890;-68
2021/05/26 03:57:47;;;;;;;0.60;0.50;;;;;;;10.79;89.04;100674.59;5055583;28;20438;-69
2021/05/26 04:00:14;;;;;;;0.67;0.43;;;;;;;10.84;88.21;100671.78;5056487;28;20495;-69
2021/05/26 04:02:40;;;;;;;0.80;0.40;;;;;;;10.89;88.52;100662.75;5056452;28;20500;-68
2021/05/26 04:05:07;;;;;;;0.53;0.40;;;;;;;10.90;87.75;100669.81;5056332;28;20935;-69
2021/05/26 04:07:33;;;;;;;0.97;0.40;;;;;;;10.87;86.85;100663.06;5055535;28;20438;-69
2021/05/26 04:10:00;;;;;;;0.50;0.40;;;;;;;10.90;87.56;100669.81;5055909;28;20827;-69
2021/05/26 04:12:27;;;;;;;0.50;0.40;;;;;;;10.91;87.65;100665.97;5056258;28;20434;-69
2021/05/26 04:14:54;;;;;;;0.47;0.43;;;;;;;10.97;87.98;100662.84;5056023;28;20513;-69
2021/05/26 04:17:20;;;;;;;0.50;0.40;;;;;;;11.00;86.98;100666.88;5055425;28;20464;-69
2021/05/26 04:19:46;;;;;;;0.70;0.40;;;;;;;10.98;87.25;100660.94;5055622;28;20979;-70
2021/05/26 04:22:12;;;;;;;0.50;0.43;;;;;;;11.00;87.43;100661.47;5055759;28;20468;-69
2021/05/26 04:24:38;;;;;;;1.53;0.73;;;;;;;11.03;87.62;100663.59;5055965;28;20488;-69
2021/05/26 04:27:05;;;;;;;0.70;0.47;;;;;;;11.03;89.27;100658.97;5055412;28;20458;-69
2021/05/26 04:29:32;;;;;;;0.50;0.50;;;;;;;11.04;87.71;100657.84;5055273;28;20485;-69
2021/05/26 04:31:59;;;;;;;0.80;0.67;;;;;;;11.03;87.41;100656.25;5055819;28;20438;-69
2021/05/26 04:34:26;;;;;;;0.83;0.70;;;;;;;11.07;86.75;100661.88;5055846;28;20481;-69
2021/05/26 04:36:52;;;;;;;0.63;0.60;;;;;;;11.06;87.58;100655.63;5055372;28;20438;-69
2021/05/26 04:39:17;;;;;;;2.10;0.70;;;;;;;11.16;87.81;100657.34;5055200;28;20490;-69
2021/05/26 04:41:44;;;;;;;0.90;0.60;;;;;;;11.25;87.25;100660.94;5055618;28;20457;-69
2021/05/26 04:44:10;;;;;;;0.77;0.60;;;;;;;11.32;86.67;100661.31;5055619;28;20446;-69
2021/05/26 04:46:36;;;;;;;0.80;0.60;;;;;;;11.28;85.60;100660.31;5055490;28;20441;-70
2021/05/26 04:49:03;;;;;;;0.50;0.50;;;;;;;11.30;86.77;100658.13;5054627;28;20450;-69
2021/05/26 04:51:29;;;;;;;0.90;0.80;;;;;;;11.33;86.21;100657.53;5054546;28;20441;-69
2021/05/26 04:53:55;;;;;;;0.50;0.50;;;;;;;11.36;85.26;100654.19;5055405;28;20893;-69
2021/05/26 04:56:21;;;;;;;0.90;0.60;;;;;;;11.37;84.75;100653.06;5055393;28;20806;-69
2021/05/26 04:58:47;;;;;;;1.33;1.23;;;;;;;11.43;85.02;100648.38;5054376;28;20470;-69
2021/05/26 05:01:13;;;;;;;0.50;0.40;;;;;;;11.49;85.30;100649.84;5055222;28;20814;-69
2021/05/26 05:03:39;;;;;;;0.80;0.63;;;;;;;11.54;85.62;100646.22;5055267;28;20451;-69
2021/05/26 05:06:08;;;;;;;0.87;0.60;;;;;;;11.62;84.33;100650.91;5055305;28;20515;-69
2021/05/26 05:08:33;;;;;;;1.50;0.73;;;;;;;11.75;84.45;100646.56;5054304;28;20470;-69
2021/05/26 05:10:59;;;;;;;0.53;0.50;;;;;;;11.81;83.29;100651.53;5055132;28;20791;-69
2021/05/26 05:13:25;;;;;;;0.60;0.60;;;;;;;11.84;83.11;100650.97;5055194;28;20818;-69
2021/05/26 05:15:51;;;;;;;1.80;0.93;;;;;;;11.90;83.20;100656.28;5055050;28;20434;-70
2021/05/26 05:18:18;;;;;;;0.70;0.40;;;;;;;11.94;84.17;100644.47;5053841;28;20834;-69
2021/05/26 05:20:43;;;;;;;0.73;0.43;;;;;;;12.02;82.93;100651.91;5055002;28;20792;-72
2021/05/26 05:23:10;;;;;;;0.50;0.47;;;;;;;12.02;83.34;100645.66;5055755;28;20449;-69
2021/05/26 05:25:36;;;;;;;0.60;0.40;;;;;;;12.04;81.69;100648.84;5054655;28;20946;-69
2021/05/26 05:28:04;;;;;;;0.70;0.50;;;;;;;12.10;82.11;100653.88;5053739;28;20453;-68
2021/05/26 05:30:30;;;;;;;0.97;0.70;;;;;;;12.14;81.21;100651.34;5056360;28;20438;-68
2021/05/26 05:32:56;;;;;;;0.70;0.60;;;;;;;12.11;80.86;100644.59;5054772;28;20448;-69
2021/05/26 05:35:22;;;;;;;0.60;0.50;;;;;;;12.14;80.97;100647.84;5054615;28;20488;-68
2021/05/26 05:37:48;;;;;;;0.80;0.60;;;;;;;12.12;81.69;100645.41;5053770;28;20481;-68
2021/05/26 05:40:15;;;;;;;0.93;0.60;;;;;;;12.05;82.29;100639.63;5054309;28;20528;-68
2021/05/26 05:42:41;;;;;;;0.40;0.30;;;;;;;12.08;81.56;100644.41;5054801;28;20469;-68
2021/05/26 05:45:08;;;;;;;0.60;0.50;;;;;;;12.16;81.84;100648.31;5054315;28;20492;-68
2021/05/26 05:47:35;;;;;;;1.17;0.80;;;;;;;12.20;81.34;100641.94;5053741;28;20442;-68
2021/05/26 05:50:01;;;;;;;0.63;0.50;;;;;;;12.22;81.65;100642.47;5054348;28;20520;-69
2021/05/26 05:52:27;;;;;;;0.60;0.60;;;;;;;12.21;80.70;100637.31;5054400;28;20552;-68
2021/05/26 05:54:53;;;;;;;1.43;0.60;;;;;;;12.25;81.02;100646.44;5054194;28;20991;-68
2021/05/26 05:57:20;;;;;;;2.10;0.60;;;;;;;12.36;81.28;100645.88;5052965;28;20978;-69
2021/05/26 05:59:46;;;;;;;1.50;1.00;;;;;;;12.47;82.36;100648.31;5054087;28;20493;-70
2021/05/26 06:02:11;;;;;;;0.50;0.50;;;;;;;12.54;81.08;100646.78;5054017;28;20449;-71
2021/05/26 06:04:37;;;;;;;0.70;0.70;;;;;;;12.56;80.82;100646.44;5054159;28;20446;-70
2021/05/26 06:07:04;;;;;;;0.40;0.40;;;;;;;12.58;80.65;100644.25;5053470;28;20458;-70
2021/05/26 06:09:30;;;;;;;0.57;0.50;;;;;;;12.48;79.04;100647.22;5053611;28;20466;-70
2021/05/26 06:11:57;;;;;;;0.80;0.57;;;;;;;12.47;79.74;100645.59;5053642;28;21002;-70
2021/05/26 06:14:24;;;;;;;0.53;0.50;;;;;;;12.36;79.78;100645.09;5053516;28;20994;-69
2021/05/26 06:16:50;;;;;;;0.83;0.73;;;;;;;12.36;80.51;100635.03;5053096;28;20936;-69
2021/05/26 06:19:16;;;;;;;0.60;0.60;;;;;;;12.46;80.15;100631.22;5053325;28;20462;-69
2021/05/26 06:21:42;;;;;;;0.50;0.47;;;;;;;12.58;80.29;100634.16;5053786;28;20458;-69
2021/05/26 06:24:09;;;;;;;0.90;0.90;;;;;;;12.66;80.39;100648.91;5053850;28;20437;-70
2021/05/26 06:26:35;;;;;;;1.50;0.77;;;;;;;12.67;79.62;100636.94;5053758;28;20538;-71
2021/05/26 06:29:02;;;;;;;1.00;0.70;;;;;;;12.69;79.53;100642.03;5052366;28;20873;-69
2021/05/26 06:31:30;;;;;;;0.80;0.67;;;;;;;12.67;80.32;100634.22;5053699;28;20488;-69
2021/05/26 06:33:56;;;;;;;1.00;0.80;;;;;;;12.75;79.75;100641.59;5053199;28;20855;-69
2021/05/26 06:36:23;;;;;;;0.70;0.60;;;;;;;12.80;79.91;100641.44;5053290;28;20944;-70
2021/05/26 06:38:49;;;;;;;1.07;1.00;;;;;;;12.93;77.99;100639.75;5052621;28;20514;-71
2021/05/26 06:41:15;;;;;;;1.00;0.90;;;;;;;13.03;77.20;100638.66;5053557;28;20484;-70
2021/05/26 06:43:41;;;;;;;1.10;0.77;;;;;;;13.11;76.56;100637.88;5053496;28;20525;-70
2021/05/26 06:46:07;;;;;;;0.97;0.87;;;;;;;13.13;76.35;100638.34;5053416;28;20457;-71
2021/05/26 06:48:34;;;;;;;0.70;0.70;;;;;;;13.24;75.16;100639.69;5052510;28;20473;-70
2021/05/26 06:51:00;;;;;;;0.70;0.70;;;;;;;13.27;75.22;100638.22;5053264;28;20442;-70
2021/05/26 06:53:26;;;;;;;1.23;1.10;;;;;;;13.33;75.79;100640.50;5053026;28;20446;-70
2021/05/26 06:55:53;;;;;;;4.50;0.80;;;;;;;13.28;73.48;100639.81;5052908;28;20997;-70
2021/05/26 06:58:19;;;;;;;0.70;0.70;;;;;;;13.33;74.66;100639.69;5052071;28;20979;-70
2021/05/26 07:00:45;;;;;;;1.10;0.73;;;;;;;13.29;73.38;100641.44;5053298;28;20446;-69
2021/05/26 07:03:12;;;;;;;0.60;0.60;;;;;;;13.29;74.27;100639.53;5053214;28;20813;-69
2021/05/26 07:05:39;;;;;;;0.97;0.70;;;;;;;13.32;75.18;100644.31;5052871;28;20454;-71
2021/05/26 07:08:05;;;;;;;1.50;0.83;;;;;;;13.42;74.77;100642.44;5052184;28;20450;-70
2021/05/26 07:10:32;;;;;;;0.80;0.80;;;;;;;13.59;74.78;100643.25;5053138;28;20442;-70
2021/05/26 07:12:58;;;;;;;0.80;0.60;;;;;;;13.75;73.17;100640.03;5052781;28;20442;-70
2021/05/26 07:15:24;;;;;;;0.83;0.73;;;;;;;13.97;71.73;100641.78;5052814;28;20540;-70
2021/05/26 07:17:50;;;;;;;0.93;0.80;;;;;;;14.20;72.24;100635.00;5055866;28;20472;-70
2021/05/26 07:20:16;;;;;;;1.53;1.03;;;;;;;14.42;70.01;100646.81;5053027;28;20449;-70
2021/05/26 07:22:44;;;;;;;1.00;0.90;;;;;;;14.47;67.74;100636.53;5052998;28;20443;-70
2021/05/26 07:25:11;;;;;;;0.80;0.70;;;;;;;14.59;68.36;100639.41;5052793;28;20464;-70
2021/05/26 07:27:37;;;;;;;1.10;0.80;;;;;;;14.56;67.53;100637.31;5051723;28;20442;-70
2021/05/26 07:30:05;;;;;;;2.10;0.90;;;;;;;14.69;67.88;100632.78;5052028;28;20481;-70
2021/05/26 07:32:30;;;;;;;2.70;1.20;;;;;;;14.72;67.80;100640.31;5052916;28;20504;-70
2021/05/26 07:34:56;;;;;;;0.80;0.63;;;;;;;14.68;66.88;100641.31;5052894;28;20482;-70
2021/05/26 07:37:23;;;;;;;1.00;0.83;;;;;;;14.58;65.78;100642.47;5052063;28;20827;-70
2021/05/26 07:39:51;;;;;;;1.40;1.20;;;;;;;14.53;65.08;100643.44;5052552;28;20466;-70
2021/05/26 07:42:17;;;;;;;2.03;0.70;;;;;;;14.52;66.59;100630.13;5052819;28;20450;-69
2021/05/26 07:44:43;;;;;;;3.63;0.70;;;;;;;14.43;65.60;100632.06;5052830;28;20438;-70
2021/05/26 07:47:10;;;;;;;1.07;0.73;;;;;;;14.48;65.00;100634.63;5052441;28;20836;-71
2021/05/26 07:49:36;;;;;;;1.10;1.00;;;;;;;14.56;65.14;100634.59;5051848;28;20477;-70
2021/05/26 07:52:05;;;;;;;0.80;0.50;;;;;;;14.66;65.33;100633.47;5052729;28;20438;-71
2021/05/26 07:54:31;;;;;;;0.67;0.60;;;;;;;14.80;66.34;100627.78;5052680;28;20494;-72
2021/05/26 07:56:58;;;;;;;1.90;0.90;;;;;;;14.92;64.47;100629.78;5052676;28;20453;-70
2021/05/26 07:59:24;;;;;;;1.10;0.97;;;;;;;15.11;64.82;100627.47;5052668;28;20497;-69
2021/05/26 08:01:50;;;;;;;0.90;0.50;;;;;;;15.29;63.26;100631.66;5052303;28;20445;-70
2021/05/26 08:04:16;;;;;;;0.87;0.67;;;;;;;15.30;60.49;100637.91;5052386;28;20449;-70
2021/05/26 08:06:42;;;;;;;1.27;0.97;;;;;;;15.29;60.82;100630.88;5052626;28;20496;-70
2021/05/26 08:09:08;;;;;;;0.70;0.63;;;;;;;15.27;60.27;100623.03;5052533;28;20469;-70
2021/05/26 08:11:34;;;;;;;0.60;0.60;;;;;;;15.21;61.23;100629.00;5052587;28;20528;-70
2021/05/26 08:14:01;;;;;;;0.60;0.60;;;;;;;14.93;61.38;100628.69;5052376;28;20434;-70
2021/05/26 08:16:27;;;;;;;1.87;0.83;;;;;;;14.80;61.92;100625.84;5052983;28;20446;-70
2021/05/26 08:18:53;;;;;;;0.70;0.63;;;;;;;14.86;62.48;100608.16;5052094;28;20462;-69
2021/05/26 08:21:20;;;;;;;1.30;1.20;;;;;;;14.88;63.31;100616.84;5052511;28;20849;-69
2021/05/26 08:23:46;;;;;;;0.60;0.60;;;;;;;14.85;62.77;100625.66;5052463;28;20450;-70
2021/05/26 08:26:16;;;;;;;1.10;1.00;;;;;;;14.91;63.72;100614.56;5053639;28;20950;-69
2021/05/26 08:28:43;;;;;;;0.83;0.80;;;;;;;14.98;63.00;100618.38;5055749;28;20545;-69
2021/05/26 08:31:11;;;;;;;0.70;0.63;;;;;;;14.93;64.42;100617.78;5055142;28;20442;-69
2021/05/26 08:33:37;;;;;;;0.80;0.63;;;;;;;14.86;64.07;100608.16;5055480;28;20434;-69
2021/05/26 08:36:03;;;;;;;0.87;0.87;;;;;;;14.81;62.97;100610.28;5055407;28;20998;-69
2021/05/26 08:38:29;;;;;;;1.03;0.70;;;;;;;14.76;63.75;100600.38;5053353;28;20830;-70
2021/05/26 08:40:55;;;;;;;0.83;0.70;;;;;;;14.66;63.26;100602.69;5052767;28;20448;-70
2021/05/26 08:43:24;;;;;;;0.90;0.60;;;;;;;14.58;64.73;100601.59;5045724;28;20987;-70
2021/05/26 08:45:51;;;;;;;4.50;0.80;;;;;;;14.51;65.73;100601.28;5051433;28;20484;-70
2021/05/26 08:48:22;;;;;;;0.67;0.67;;;;;;;14.42;67.66;100595.03;5053238;28;20469;-70
2021/05/26 08:50:50;;;;;;;1.60;1.00;;;;;;;14.37;67.46;100593.28;5047337;28;20436;-69
2021/05/26 08:53:16;;;;;;;1.07;0.77;;;;;;;14.34;66.90;100597.47;5035589;28;20443;-70
2021/05/26 08:55:43;;;;;;;0.60;0.60;;;;;;;14.30;66.79;100590.28;5050646;28;20539;-69
2021/05/26 08:58:09;;;;;;;0.73;0.73;;;;;;;14.24;66.45;100589.63;5054323;28;20454;-70
2021/05/26 09:00:35;;;;;;;1.67;1.30;;;;;;;14.15;66.55;100597.03;5053852;28;20454;-68
2021/05/26 09:03:05;;;;;;;0.60;0.50;;;;;;;14.12;66.23;100595.78;5054570;28;20446;-69
2021/05/26 09:05:33;;;;;;;0.83;0.83;;;;;;;14.09;66.61;100587.44;5049367;28;20960;-70
2021/05/26 09:08:11;;;;;;;0.50;0.50;;;;;;;14.09;68.68;100582.00;5054149;28;20446;-71
2021/05/26 09:10:46;;;;;;;0.70;0.70;;;;;;;14.16;67.54;100582.28;5053813;28;20441;-73
2021/05/26 09:13:26;;;;;;;0.70;0.50;;;;;;;14.36;67.58;100570.69;5059484;28;20473;-70
2021/05/26 09:15:52;;;;;;;1.23;0.70;;;;;;;14.71;65.62;100573.28;5053837;28;20565;-71
2021/05/26 09:18:18;;;;;;;0.70;0.60;;;;;;;15.06;64.05;100575.81;5054355;28;20496;-71
2021/05/26 09:20:47;;;;;;;3.33;0.90;;;;;;;15.36;60.83;100568.34;5054008;28;20457;-71
2021/05/26 09:23:17;;;;;;;1.13;0.80;;;;;;;15.58;59.69;100562.56;5054089;28;20439;-70
2021/05/26 09:25:51;;;;;;;1.90;0.60;;;;;;;15.67;59.34;100565.25;5054024;28;20474;-72
2021/05/26 09:28:20;;;;;;;1.03;0.80;;;;;;;15.68;60.23;100561.38;5053836;28;20485;-70
2021/05/26 09:30:51;;;;;;;1.43;1.10;;;;;;;15.58;58.38;100564.47;5054885;28;20445;-71
2021/05/26 09:33:34;;;;;;;0.50;0.40;;;;;;;15.41;59.76;100561.91;5054317;28;20435;-73
2021/05/26 09:36:28;;;;;;;1.13;0.70;;;;;;;15.40;61.08;100566.56;5034354;28;20830;-75
2021/05/26 09:38:56;;;;;;;1.00;0.90;;;;;;;15.29;57.46;100563.44;5034548;28;20485;-70
2021/05/26 09:41:24;;;;;;;1.47;0.70;;;;;;;15.35;60.10;100559.38;5033865;28;20443;-70
2021/05/26 09:43:52;;;;;;;0.60;0.50;;;;;;;15.43;59.08;100565.91;5033875;28;20995;-69
2021/05/26 09:46:19;;;;;;;4.93;1.50;;;;;;;15.37;58.96;100546.19;5033909;28;20439;-69
2021/05/26 09:49:06;;;;;;;0.77;0.77;;;;;;;15.41;59.04;100545.53;5033695;28;20459;-69
2021/05/26 09:51:35;;;;;;;6.87;0.77;;;;;;;15.44;58.54;100555.78;5034406;28;20473;-69
2021/05/26 09:54:20;;;;;;;1.40;0.70;;;;;;;15.44;59.00;100551.09;5034302;28;20458;-71
2021/05/26 09:56:47;;;;;;;0.50;0.40;;;;;;;15.53;58.00;100548.31;5033946;28;20903;-71
2021/05/26 09:59:14;;;;;;;1.00;0.57;;;;;;;15.70;58.23;100547.38;5034549;28;20470;-70
2021/05/26 10:01:40;;;;;;;0.70;0.50;;;;;;;16.00;59.67;100548.81;5054335;28;20442;-70
2021/05/26 10:04:07;;;;;;;0.77;0.77;;;;;;;16.37;55.34;100552.41;5053901;28;20434;-69
2021/05/26 10:06:34;;;;;;;1.17;0.70;;;;;;;16.57;53.69;100545.25;5053734;28;20446;-71
2021/05/26 10:09:01;;;;;;;0.70;0.63;;;;;;;16.61;54.57;100548.09;5053322;28;20835;-71
2021/05/26 10:11:32;;;;;;;0.50;0.40;;;;;;;16.71;53.35;100544.09;5054142;28;20450;-72
2021/05/26 10:14:02;;;;;;;1.07;0.60;;;;;;;16.79;53.19;100541.28;5053932;28;20441;-70
2021/05/26 10:16:32;;;;;;;0.50;0.40;;;;;;;16.73;53.36;100534.41;5054023;28;20430;-71
2021/05/26 10:19:02;;;;;;;3.30;0.80;;;;;;;16.77;54.95;100529.84;5052974;28;20896;-71
2021/05/26 10:21:29;;;;;;;0.50;0.50;;;;;;;16.94;53.98;100530.75;5053777;28;20477;-71
2021/05/26 10:23:56;;;;;;;0.70;0.50;;;;;;;17.07;54.34;100537.78;5054005;28;20461;-72
2021/05/26 10:26:56;;;;;;;0.70;0.70;;;;;;;17.03;54.74;100528.69;5053706;28;20449;-71
2021/05/26 10:29:39;;;;;;;0.80;0.50;;;;;;;16.99;54.33;100536.78;5051314;28;20474;-71
2021/05/26 10:32:07;;;;;;;0.93;0.80;;;;;;;17.20;54.88;100525.66;5053519;28;20438;-72
2021/05/26 10:35:08;;;;;;;1.07;0.73;;;;;;;17.29;53.19;100540.00;5052274;28;20483;-71
2021/05/26 10:37:37;;;;;;;0.50;0.40;;;;;;;17.37;51.89;100533.59;5052953;28;20930;-71
2021/05/26 10:40:45;;;;;;;0.70;0.70;;;;;;;17.08;51.53;100534.69;5053330;28;21070;-71
2021/05/26 10:43:31;;;;;;;1.00;0.50;;;;;;;16.88;52.53;100532.94;5052837;28;20429;-70
2021/05/26 10:46:00;;;;;;;2.00;0.77;;;;;;;16.69;53.73;100530.78;5053512;28;20450;-70
2021/05/26 10:49:03;;;;;;;1.13;0.93;;;;;;;16.60;55.11;100528.16;5051828;28;20470;-69
2021/05/26 10:52:06;;;;;;;0.50;0.40;;;;;;;16.59;53.92;100523.00;5053508;28;20438;-70
2021/05/26 10:55:03;;;;;;;2.80;0.60;;;;;;;16.33;53.66;100528.81;5053350;28;20585;-70
2021/05/26 10:57:31;;;;;;;0.63;0.60;;;;;;;16.29;54.71;100520.53;5052452;28;20441;-71
2021/05/26 11:00:25;;;;;;;1.03;0.67;;;;;;;16.35;55.30;100521.88;5053043;28;20461;-71
2021/05/26 11:03:39;;;;;;;1.10;0.73;;;;;;;16.36;54.33;100522.69;5053247;28;20511;-71
2021/05/26 11:06:39;;;;;;;0.80;0.60;;;;;;;16.47;54.88;100512.06;5049959;28;20430;-70
2021/05/26 11:09:09;;;;;;;0.70;0.50;;;;;;;16.40;55.38;100502.50;5038313;28;20451;-71
2021/05/26 11:11:54;;;;;;;1.43;1.20;;;;;;;16.15;55.80;100509.91;5050344;28;20447;-72
2021/05/26 11:14:28;;;;;;;0.60;0.60;;;;;;;16.00;57.99;100498.84;5032501;28;20421;-72
2021/05/26 11:17:27;;;;;;;0.90;0.60;;;;;;;15.75;61.20;100508.94;5032473;28;20526;-72
2021/05/26 11:20:16;;;;;;;0.87;0.83;;;;;;;15.22;68.31;100522.22;5032356;28;20836;-72
2021/05/26 11:22:43;;;;;;;0.90;0.90;;;;;;;14.71;78.13;100529.66;5032401;28;20454;-72
2021/05/26 11:25:11;;;;;;;0.90;0.80;;;;;;;14.08;85.57;100536.84;5032456;28;20443;-73
2021/05/26 11:27:45;;;;;;;0.63;0.53;;;;;;;13.32;87.26;100532.78;5031755;28;20817;-72
2021/05/26 11:30:12;;;;;;;0.93;0.60;;;;;;;12.78;91.34;100526.78;5039035;28;20456;-71